createdAt,value
2018-03-19T00:01:08.084Z,-2.91
2018-03-19T00:03:36.952Z,-2.97
2018-03-19T00:06:06.081Z,-2.92
2018-03-19T00:08:34.946Z,-2.89
2018-03-19T00:11:03.832Z,-3.08
2018-03-19T00:13:32.639Z,-3.01
2018-03-19T00:16:01.610Z,-3.06
2018-03-19T00:18:30.931Z,-3.11
2018-03-19T00:21:00.099Z,-3.11
2018-03-19T00:23:28.864Z,-3.14
2018-03-19T00:25:58.024Z,-3.13
2018-03-19T00:28:26.915Z,-3.19
2018-03-19T00:30:55.799Z,-3.18
2018-03-19T00:33:24.591Z,-3.18
2018-03-19T00:35:53.307Z,-3.25
2018-03-19T00:38:22.185Z,-3.15
2018-03-19T00:40:51.270Z,-3.19
2018-03-19T00:43:20.211Z,-3.34
2018-03-19T00:45:49.342Z,-3.25
2018-03-19T00:48:18.231Z,-3.26
2018-03-19T00:50:47.554Z,-3.29
2018-03-19T00:53:16.422Z,-3.32
2018-03-19T00:55:45.535Z,-3.45
2018-03-19T00:58:14.418Z,-3.29
2018-03-19T01:00:43.478Z,-3.40
2018-03-19T01:03:12.324Z,-3.41
2018-03-19T01:05:41.073Z,-3.41
2018-03-19T01:08:10.010Z,-3.37
2018-03-19T01:10:38.956Z,-3.48
2018-03-19T01:13:07.705Z,-3.49
2018-03-19T01:15:36.236Z,-3.53
2018-03-19T01:18:04.868Z,-3.48
2018-03-19T01:20:33.396Z,-3.58
2018-03-19T01:23:01.892Z,-3.67
2018-03-19T01:25:30.941Z,-3.63
2018-03-19T01:27:59.612Z,-3.48
2018-03-19T01:30:28.737Z,-3.62
2018-03-19T01:32:57.384Z,-3.61
2018-03-19T01:35:26.093Z,-3.69
2018-03-19T01:37:54.561Z,-3.58
2018-03-19T01:40:23.049Z,-3.52
2018-03-19T01:42:51.559Z,-3.73
2018-03-19T01:45:20.227Z,-3.74
2018-03-19T01:47:48.707Z,-3.77
2018-03-19T01:50:17.216Z,-3.71
2018-03-19T01:52:50.151Z,-3.74
2018-03-19T01:55:18.760Z,-3.81
2018-03-19T01:57:47.335Z,-3.72
2018-03-19T02:00:16.024Z,-3.80
2018-03-19T02:02:44.497Z,-3.71
2018-03-19T02:05:13.395Z,-3.88
2018-03-19T02:07:41.912Z,-3.91
2018-03-19T02:10:10.786Z,-3.71
2018-03-19T02:12:39.448Z,-3.76
2018-03-19T02:15:07.976Z,-3.86
2018-03-19T02:17:36.580Z,-3.96
2018-03-19T02:20:05.101Z,-3.87
2018-03-19T02:22:33.748Z,-3.98
2018-03-19T02:25:02.225Z,-3.98
2018-03-19T02:27:30.765Z,-3.99
2018-03-19T02:29:59.414Z,-4.02
2018-03-19T02:32:28.123Z,-3.98
2018-03-19T02:34:56.612Z,-4.01
2018-03-19T02:37:25.281Z,-3.91
2018-03-19T02:39:53.970Z,-4.04
2018-03-19T02:42:22.665Z,-4.00
2018-03-19T02:44:51.241Z,-4.03
2018-03-19T02:47:19.900Z,-4.10
2018-03-19T02:49:48.383Z,-3.99
2018-03-19T02:52:16.873Z,-4.12
2018-03-19T02:54:45.435Z,-3.97
2018-03-19T02:57:13.968Z,-4.16
2018-03-19T02:59:42.665Z,-4.13
2018-03-19T03:02:11.330Z,-4.03
2018-03-19T03:04:39.814Z,-4.18
2018-03-19T03:07:08.286Z,-4.13
2018-03-19T03:09:36.758Z,-4.16
2018-03-19T03:12:05.312Z,-4.09
2018-03-19T03:14:33.941Z,-4.25
2018-03-19T03:17:02.426Z,-4.12
2018-03-19T03:20:34.177Z,-4.16
2018-03-19T03:23:02.623Z,-4.15
2018-03-19T03:25:31.115Z,-4.13
2018-03-19T03:27:59.561Z,-4.10
2018-03-19T03:30:28.295Z,-4.24
2018-03-19T03:32:56.943Z,-4.28
2018-03-19T03:35:25.452Z,-4.30
2018-03-19T03:37:54.138Z,-4.35
2018-03-19T03:40:22.701Z,-4.29
2018-03-19T03:42:51.368Z,-4.25
2018-03-19T03:45:20.212Z,-4.34
2018-03-19T03:47:48.707Z,-4.34
2018-03-19T03:50:17.389Z,-4.39
2018-03-19T03:52:45.883Z,-4.37
2018-03-19T03:55:14.538Z,-4.41
2018-03-19T03:57:43.462Z,-4.30
2018-03-19T04:00:12.169Z,-4.30
2018-03-19T04:02:40.992Z,-4.36
2018-03-19T04:05:09.710Z,-4.22
2018-03-19T04:07:38.362Z,-4.25
2018-03-19T04:10:07.098Z,-4.46
2018-03-19T04:12:35.738Z,-4.20
2018-03-19T04:15:04.479Z,-4.21
2018-03-19T04:17:33.080Z,-4.38
2018-03-19T04:20:01.623Z,-4.27
2018-03-19T04:22:30.147Z,-4.38
2018-03-19T04:24:58.820Z,-4.25
2018-03-19T04:27:27.357Z,-4.37
2018-03-19T04:29:55.867Z,-4.43
2018-03-19T04:32:24.483Z,-4.48
2018-03-19T04:37:27.740Z,-4.36
2018-03-19T04:39:56.188Z,-4.15
2018-03-19T04:42:24.899Z,-4.50
2018-03-19T04:44:53.368Z,-4.43
2018-03-19T04:47:21.903Z,-4.41
2018-03-19T04:49:50.529Z,-4.56
2018-03-19T04:52:19.243Z,-4.49
2018-03-19T04:54:47.705Z,-4.41
2018-03-19T04:57:16.251Z,-4.55
2018-03-19T04:59:44.725Z,-4.42
